Time;durP1;ratioP1;P1;durP2;ratioP2;P2;SDS_P1;SDS_P2;PMS_P1;PMS_P2;Temp;Humidity;BMP_temperature;BMP_pressure;BME280_temperature;BME280_humidity;BME280_pressure;Samples;Min_cycle;Max_cycle;Signal;HPM_P1;HPM_P2
2022/08/11 00:00:07;;;;;;;1.60;1.30;;;23.80;47.90;;;;;;5055668;28;20342;-40
2022/08/11 00:02:38;;;;;;;1.17;1.08;;;23.80;48.00;;;;;;5055530;28;20017;-40
2022/08/11 00:05:08;;;;;;;1.52;1.10;;;23.80;48.10;;;;;;5055938;28;20412;-44
2022/08/11 00:07:41;;;;;;;1.50;1.00;;;23.80;48.20;;;;;;5053987;28;20083;-42
2022/08/11 00:10:14;;;;;;;1.65;0.90;;;23.70;48.30;;;;;;5055503;28;20074;-41
2022/08/11 00:12:41;;;;;;;;;;;23.70;48.40;;;;;;5055546;28;20374;-41
2022/08/11 00:15:08;;;;;;;1.42;1.10;;;23.60;48.30;;;;;;5055247;28;20291;-42
2022/08/11 00:17:34;;;;;;;1.02;1.00;;;23.60;48.50;;;;;;5054129;28;20029;-39
2022/08/11 00:20:07;;;;;;;2.15;1.10;;;23.60;48.70;;;;;;5054950;28;20416;-37
2022/08/11 00:22:38;;;;;;;1.17;1.00;;;23.50;48.80;;;;;;5055191;28;20472;-42
2022/08/11 00:25:12;;;;;;;1.20;1.10;;;23.50;48.90;;;;;;5055071;28;20051;-40
2022/08/11 00:27:39;;;;;;;1.10;1.10;;;23.50;48.90;;;;;;5054865;28;20029;-43
2022/08/11 00:30:07;;;;;;;1.30;1.00;;;23.50;49.00;;;;;;5055660;28;20029;-41
2022/08/11 00:32:35;;;;;;;2.05;1.40;;;23.40;49.10;;;;;;5054781;28;20036;-41
2022/08/11 00:35:02;;;;;;;2.67;1.10;;;23.40;49.20;;;;;;5054526;28;20029;-40
2022/08/11 00:37:29;;;;;;;1.52;1.42;;;23.40;49.30;;;;;;5054744;28;20021;-42
2022/08/11 00:39:55;;;;;;;1.50;1.20;;;23.40;50.00;;;;;;5054835;28;20116;-43
2022/08/11 00:42:55;;;;;;;1.50;1.13;;;23.30;49.50;;;;;;5054681;28;20029;-44
2022/08/11 00:45:31;;;;;;;3.47;1.15;;;23.40;49.60;;;;;;5054904;28;20029;-39
2022/08/11 00:48:18;;;;;;;3.67;1.05;;;23.30;49.70;;;;;;5054586;28;20087;-40
2022/08/11 00:51:30;;;;;;;1.23;1.13;;;23.30;49.80;;;;;;5053320;28;20095;-43
2022/08/11 00:54:25;;;;;;;1.23;1.08;;;23.20;50.50;;;;;;5054148;28;20116;-40
2022/08/11 00:57:18;;;;;;;1.88;1.00;;;23.20;50.00;;;;;;5054851;28;20048;-44
2022/08/11 00:59:55;;;;;;;1.98;1.20;;;23.10;50.10;;;;;;5052838;28;20131;-42
2022/08/11 01:02:45;;;;;;;1.23;1.10;;;23.10;50.20;;;;;;5054265;28;20029;-42
2022/08/11 01:05:26;;;;;;;1.42;1.05;;;23.10;50.30;;;;;;5054182;28;20029;-44
2022/08/11 01:08:14;;;;;;;1.70;1.15;;;23.00;50.40;;;;;;5054480;28;20033;-44
2022/08/11 01:10:53;;;;;;;2.05;0.90;;;23.00;50.60;;;;;;5053946;28;20033;-40
2022/08/11 01:13:40;;;;;;;1.30;1.20;;;23.00;50.60;;;;;;5054177;28;20070;-42
2022/08/11 01:16:28;;;;;;;1.15;0.93;;;23.00;50.80;;;;;;5053921;28;20036;-41
2022/08/11 01:19:18;;;;;;;1.20;1.08;;;22.90;50.80;;;;;;5054047;28;20037;-41
2022/08/11 01:22:34;;;;;;;1.80;1.40;;;22.80;50.90;;;;;;5053761;28;20044;-45
2022/08/11 01:25:34;;;;;;;1.17;1.10;;;22.80;51.00;;;;;;5031781;28;20052;-40
2022/08/11 01:28:26;;;;;;;2.97;1.20;;;22.80;51.20;;;;;;5031797;28;20116;-40
2022/08/11 01:31:06;;;;;;;2.15;1.30;;;22.70;51.30;;;;;;5047080;28;20094;-43
2022/08/11 01:33:55;;;;;;;2.25;1.25;;;22.60;51.50;;;;;;5053791;28;20507;-40
2022/08/11 01:36:38;;;;;;;1.30;1.10;;;22.60;51.60;;;;;;5053967;28;20033;-42
2022/08/11 01:39:34;;;;;;;1.20;1.10;;;22.50;51.80;;;;;;5053774;28;20100;-43
2022/08/11 01:45:15;;;;;;;1.63;1.20;;;22.50;51.90;;;;;;5052539;28;20078;-40
2022/08/11 01:48:25;;;;;;;1.20;1.10;;;22.40;52.00;;;;;;5053310;28;20033;-41
2022/08/11 01:51:24;;;;;;;1.48;1.20;;;22.40;52.20;;;;;;5047842;28;20041;-41
2022/08/11 01:53:58;;;;;;;1.75;1.23;;;22.30;52.40;;;;;;5053352;28;20060;-40
2022/08/11 01:56:43;;;;;;;1.83;1.30;;;22.30;52.50;;;;;;5053198;28;20025;-42
2022/08/11 01:59:17;;;;;;;1.33;1.02;;;22.20;52.60;;;;;;5053225;28;20033;-44
2022/08/11 02:02:16;;;;;;;2.67;1.20;;;22.10;52.70;;;;;;5052006;28;20132;-44
2022/08/11 02:05:02;;;;;;;1.60;1.30;;;22.10;52.90;;;;;;5053037;28;20541;-39
2022/08/11 02:07:59;;;;;;;1.40;1.30;;;22.10;52.90;;;;;;5053361;28;20028;-40
2022/08/11 02:13:32;;;;;;;1.25;1.00;;;21.90;53.20;;;;;;5052640;28;20048;-45
2022/08/11 02:16:12;;;;;;;1.55;1.13;;;21.90;53.30;;;;;;5052841;28;20079;-42
2022/08/11 02:24:27;;;;;;;1.85;1.27;;;21.80;53.80;;;;;;5052791;28;20192;-39
2022/08/11 02:27:08;;;;;;;2.35;1.40;;;21.80;54.00;;;;;;5052878;28;20388;-43
2022/08/11 02:29:42;;;;;;;2.92;1.40;;;21.70;54.10;;;;;;5052681;28;20017;-39
2022/08/11 02:35:18;;;;;;;1.95;1.40;;;21.70;54.40;;;;;;5052792;28;20040;-38
2022/08/11 02:38:12;;;;;;;2.08;1.48;;;21.60;54.60;;;;;;5051144;28;20055;-44
2022/08/11 02:40:50;;;;;;;1.55;1.20;;;21.60;54.80;;;;;;5050953;28;20076;-43
2022/08/11 02:43:30;;;;;;;3.05;1.30;;;21.50;54.80;;;;;;5052678;28;20469;-40
2022/08/11 02:46:16;;;;;;;2.35;1.45;;;21.40;55.00;;;;;;5051235;28;20017;-41
2022/08/11 02:52:07;;;;;;;4.82;2.28;;;21.40;55.30;;;;;;5052812;28;20086;-40
2022/08/11 02:54:47;;;;;;;2.40;1.40;;;21.40;55.30;;;;;;5051303;28;20127;-43
2022/08/11 02:57:33;;;;;;;1.60;1.27;;;21.40;55.40;;;;;;5051263;28;20025;-41
2022/08/11 03:00:09;;;;;;;1.52;1.35;;;21.40;55.60;;;;;;5052652;28;20487;-38
2022/08/11 03:03:04;;;;;;;3.05;1.52;;;21.40;55.70;;;;;;5052529;28;20358;-40
2022/08/11 03:05:47;;;;;;;1.30;1.10;;;21.30;55.60;;;;;;5052355;28;20062;-40
2022/08/11 03:08:27;;;;;;;3.13;1.60;;;21.30;55.60;;;;;;5052782;28;20512;-41
2022/08/11 03:17:23;;;;;;;2.40;1.50;;;21.30;55.80;;;;;;5051270;28;20044;-42
2022/08/11 03:20:09;;;;;;;2.22;1.40;;;21.30;55.80;;;;;;5051057;28;20033;-43
2022/08/11 03:22:54;;;;;;;4.50;1.30;;;21.30;55.90;;;;;;5052397;28;20024;-43
2022/08/11 03:25:48;;;;;;;2.90;1.30;;;21.30;55.90;;;;;;5056034;28;20036;-41
2022/08/11 03:28:24;;;;;;;1.52;1.30;;;21.30;56.00;;;;;;5056636;28;20454;-42
2022/08/11 03:31:18;;;;;;;1.90;1.40;;;21.30;55.90;;;;;;5055907;28;20024;-44
2022/08/11 03:34:02;;;;;;;1.50;1.17;;;21.20;56.00;;;;;;5055934;28;20077;-42
2022/08/11 03:36:45;;;;;;;1.88;1.25;;;21.20;56.00;;;;;;5055815;28;20029;-39
2022/08/11 03:39:28;;;;;;;1.65;1.50;;;21.20;56.00;;;;;;5056025;28;20103;-43
2022/08/11 03:42:25;;;;;;;1.25;1.10;;;21.20;56.20;;;;;;5055743;28;20054;-41
2022/08/11 03:45:14;;;;;;;1.60;1.50;;;21.10;56.30;;;;;;5055537;28;20504;-42
2022/08/11 03:47:44;;;;;;;1.50;1.38;;;21.10;56.40;;;;;;5055563;28;20116;-42
2022/08/11 03:50:15;;;;;;;2.45;1.45;;;21.10;56.50;;;;;;5055561;28;20068;-43
2022/08/11 03:53:01;;;;;;;3.47;1.45;;;21.00;56.60;;;;;;5055534;28;20029;-38
2022/08/11 03:56:04;;;;;;;2.03;1.30;;;21.00;56.80;;;;;;5055539;28;20083;-42
2022/08/11 03:58:48;;;;;;;1.88;1.50;;;20.90;56.90;;;;;;5055613;28;20025;-41
2022/08/11 04:01:55;;;;;;;1.70;1.50;;;20.90;56.90;;;;;;5055748;28;20021;-38
2022/08/11 04:04:53;;;;;;;2.97;1.60;;;20.90;57.80;;;;;;5045169;28;20037;-44
2022/08/11 04:07:40;;;;;;;1.65;1.40;;;20.90;57.20;;;;;;5055572;28;20103;-38
2022/08/11 04:10:34;;;;;;;3.40;1.50;;;20.80;57.20;;;;;;5055229;28;20029;-43
2022/08/11 04:13:27;;;;;;;2.05;1.60;;;20.80;57.20;;;;;;5055284;28;20028;-40
2022/08/11 04:16:30;;;;;;;2.88;1.63;;;20.80;57.30;;;;;;5055002;28;20029;-44
2022/08/11 04:19:08;;;;;;;1.75;1.38;;;20.80;57.50;;;;;;5053651;28;20034;-43
2022/08/11 04:21:49;;;;;;;1.90;1.60;;;20.80;57.60;;;;;;5055194;28;20025;-41
2022/08/11 04:24:36;;;;;;;1.45;1.35;;;20.70;58.00;;;;;;5055108;28;20476;-41
2022/08/11 04:27:27;;;;;;;2.53;1.60;;;20.70;57.70;;;;;;5055113;28;20029;-40
2022/08/11 04:30:02;;;;;;;2.15;1.50;;;20.70;57.80;;;;;;5055013;28;20048;-41
2022/08/11 04:32:47;;;;;;;5.40;1.73;;;20.70;57.80;;;;;;5055033;28;20104;-44
2022/08/11 04:35:48;;;;;;;1.80;1.30;;;20.70;58.00;;;;;;5054055;28;20082;-42
2022/08/11 04:38:42;;;;;;;1.65;1.55;;;20.70;58.00;;;;;;5044453;28;20401;-42
2022/08/11 04:44:44;;;;;;;3.60;1.73;;;20.60;57.90;;;;;;5054930;28;20048;-41
2022/08/11 05:01:39;;;;;;;1.77;1.58;;;20.70;58.00;;;;;;5056273;28;20026;-46
2022/08/11 05:02:14;;;;;;;1.65;1.55;;;20.70;57.90;;;;;;5054217;28;20055;-41
2022/08/11 05:08:18;;;;;;;2.03;1.45;;;20.80;57.90;;;;;;5054553;28;20087;-41
2022/08/11 05:11:08;;;;;;;1.35;1.25;;;20.80;57.80;;;;;;5054132;28;20108;-44
2022/08/11 05:36:44;;;;;;;;;;;20.90;57.50;;;;;;5054223;28;20523;-41
2022/08/11 05:58:40;;;;;;;2.58;1.67;;;21.30;57.00;;;;;;5053420;28;20032;-35
2022/08/11 06:01:06;;;;;;;2.10;1.42;;;21.40;56.80;;;;;;5053241;28;20107;-32
2022/08/11 06:04:12;;;;;;;2.28;1.70;;;21.40;56.70;;;;;;5053250;28;20037;-38
2022/08/11 06:06:24;;;;;;;3.50;1.50;;;21.50;56.50;;;;;;5052973;28;20064;-34
2022/08/11 06:08:55;;;;;;;1.63;1.40;;;21.60;56.30;;;;;;5053432;28;20027;-32
2022/08/11 06:11:21;;;;;;;4.63;1.30;;;21.70;56.10;;;;;;5053272;28;20033;-37
2022/08/11 06:13:47;;;;;;;2.05;1.48;;;21.80;56.00;;;;;;5053209;28;20522;-33
2022/08/11 06:16:14;;;;;;;2.25;1.30;;;21.80;55.80;;;;;;5053058;28;20032;-32
2022/08/11 06:18:45;;;;;;;2.28;1.40;;;21.90;55.60;;;;;;5052876;28;20028;-35
2022/08/11 06:21:12;;;;;;;2.35;1.20;;;22.00;55.50;;;;;;5053245;28;20025;-34
2022/08/11 06:23:41;;;;;;;1.55;1.20;;;22.00;55.30;;;;;;5053167;28;20032;-35
2022/08/11 06:26:12;;;;;;;2.40;1.20;;;22.10;55.20;;;;;;5053428;28;20516;-35
2022/08/11 06:28:40;;;;;;;1.30;1.15;;;22.10;55.10;;;;;;5052834;28;20461;-33
2022/08/11 06:31:33;;;;;;;1.63;1.25;;;22.20;54.90;;;;;;5052009;28;20032;-34
2022/08/11 06:34:07;;;;;;;1.67;1.20;;;22.30;54.80;;;;;;5051406;28;20094;-35
2022/08/11 06:36:52;;;;;;;3.45;1.00;;;22.30;54.70;;;;;;5052723;28;20770;-33
2022/08/11 06:39:25;;;;;;;2.10;1.10;;;22.40;54.50;;;;;;5052418;28;20037;-36
2022/08/11 06:42:01;;;;;;;1.88;1.27;;;22.40;54.40;;;;;;5052557;28;20043;-34
2022/08/11 06:44:32;;;;;;;3.75;1.30;;;22.50;54.40;;;;;;5052450;28;20025;-36
2022/08/11 06:47:07;;;;;;;1.85;1.20;;;22.50;54.20;;;;;;5052617;28;20029;-37
2022/08/11 06:52:28;;;;;;;;;;;22.60;53.80;;;;;;5053233;28;20116;-36
2022/08/11 06:55:04;;;;;;;1.35;1.10;;;22.70;53.80;;;;;;5050859;28;20368;-37
2022/08/11 07:00:29;;;;;;;1.65;1.30;;;22.70;53.60;;;;;;5052645;28;20491;-32
2022/08/11 07:03:12;;;;;;;1.83;1.17;;;22.70;53.50;;;;;;5050877;28;20028;-33
2022/08/11 07:05:54;;;;;;;1.75;1.13;;;22.80;53.40;;;;;;5050912;28;20040;-32
2022/08/11 07:17:22;;;;;;;2.53;1.50;;;22.90;53.30;;;;;;5052667;28;20028;-41
2022/08/11 07:31:31;;;;;;;1.60;1.45;;;23.00;53.00;;;;;;5052462;28;20391;-41
2022/08/11 07:34:19;;;;;;;2.10;1.40;;;23.00;52.90;;;;;;5050548;28;20017;-40
2022/08/11 07:37:03;;;;;;;5.38;2.25;;;23.00;52.70;;;;;;5052497;28;20021;-43
2022/08/11 07:39:32;;;;;;;1.52;1.30;;;23.10;52.70;;;;;;5051895;28;20041;-42
2022/08/11 07:42:03;;;;;;;2.05;1.40;;;23.10;52.60;;;;;;5052414;28;20460;-42
2022/08/11 07:44:29;;;;;;;3.20;1.40;;;23.10;52.50;;;;;;5052069;28;20468;-44
2022/08/11 07:52:32;;;;;;;4.05;1.50;;;23.40;52.30;;;;;;5052273;28;20503;-40
2022/08/11 07:55:13;;;;;;;3.00;1.75;;;23.40;52.10;;;;;;5052273;28;20045;-43
2022/08/11 08:19:47;;;;;;;2.47;1.70;;;24.20;50.90;;;;;;5055364;28;20075;-41
2022/08/11 08:22:17;;;;;;;1.60;1.30;;;24.30;50.80;;;;;;5055295;28;20048;-44
2022/08/11 08:24:43;;;;;;;3.72;1.40;;;24.30;50.60;;;;;;5055549;28;20491;-40
2022/08/11 08:27:11;;;;;;;2.13;1.40;;;24.40;50.50;;;;;;5055593;28;20037;-42
2022/08/11 08:32:22;;;;;;;3.58;1.60;;;24.70;50.30;;;;;;5055464;28;20047;-42
2022/08/11 08:34:53;;;;;;;3.63;1.75;;;24.70;50.10;;;;;;5055059;28;20028;-43
2022/08/11 08:37:22;;;;;;;4.72;2.05;;;24.80;50.00;;;;;;5055173;28;20025;-44
2022/08/11 08:39:49;;;;;;;2.67;1.60;;;24.90;49.70;;;;;;5054714;28;20033;-44
2022/08/11 08:42:23;;;;;;;4.45;1.63;;;24.90;49.50;;;;;;5054995;28;20036;-44
2022/08/11 08:45:06;;;;;;;2.05;1.70;;;25.00;50.10;;;;;;5054765;28;20025;-42
2022/08/11 08:47:37;;;;;;;3.28;1.33;;;25.10;49.30;;;;;;5055182;28;20139;-41
2022/08/11 08:50:06;;;;;;;2.00;1.50;;;25.20;49.20;;;;;;5054590;28;20021;-44
2022/08/11 08:52:39;;;;;;;2.97;1.35;;;25.30;49.00;;;;;;5054986;28;20127;-40
2022/08/11 08:55:07;;;;;;;2.00;1.65;;;25.40;48.80;;;;;;5054703;28;20151;-43
2022/08/11 08:57:36;;;;;;;1.90;1.52;;;25.50;48.70;;;;;;5054620;28;20503;-41
2022/08/11 09:00:04;;;;;;;1.88;1.40;;;25.60;48.60;;;;;;5054377;28;20090;-43
2022/08/11 09:02:30;;;;;;;2.60;1.30;;;25.70;48.40;;;;;;5054603;28;20473;-40
2022/08/11 09:04:57;;;;;;;2.65;1.50;;;25.70;48.30;;;;;;5054451;28;20028;-27
2022/08/11 09:07:25;;;;;;;1.88;1.45;;;25.70;48.10;;;;;;5054334;28;20087;-27
2022/08/11 09:09:53;;;;;;;2.45;1.48;;;25.80;48.10;;;;;;5054165;28;20029;-26
2022/08/11 09:12:20;;;;;;;2.83;1.60;;;25.80;48.10;;;;;;5054796;28;20025;-25
2022/08/11 09:15:05;;;;;;;2.33;1.90;;;26.00;48.00;;;;;;5054055;28;20389;-25
2022/08/11 09:17:35;;;;;;;1.77;1.33;;;26.00;47.70;;;;;;5054440;28;20024;-25
2022/08/11 09:20:12;;;;;;;2.00;1.60;;;26.20;47.30;;;;;;5052995;28;20021;-25
2022/08/11 09:28:15;;;;;;;1.88;1.60;;;26.40;46.60;;;;;;5054267;28;20116;-31
2022/08/11 09:30:47;;;;;;;1.48;1.38;;;26.50;46.40;;;;;;5054103;28;20021;-26
2022/08/11 09:33:15;;;;;;;2.42;1.60;;;26.60;46.30;;;;;;5054212;28;20039;-25
2022/08/11 09:35:42;;;;;;;5.40;1.60;;;26.60;46.20;;;;;;5053731;28;20036;-26
2022/08/11 09:40:57;;;;;;;1.65;1.48;;;26.80;45.80;;;;;;5053406;28;20052;-25
2022/08/11 09:46:08;;;;;;;3.40;1.60;;;27.00;45.20;;;;;;5053834;28;20024;-27
2022/08/11 09:48:38;;;;;;;3.05;1.70;;;27.10;44.90;;;;;;5053476;28;20031;-25
2022/08/11 09:51:06;;;;;;;2.45;1.63;;;27.20;44.70;;;;;;5051913;28;20043;-26
2022/08/11 09:53:35;;;;;;;4.88;1.75;;;27.30;44.50;;;;;;5053268;28;20017;-25
2022/08/11 09:58:12;;;;;;;2.08;1.70;;;27.30;44.30;;;;;;5051816;28;20032;-28
2022/08/11 09:58:48;;;;;;;3.20;1.65;;;27.40;44.20;;;;;;5053069;28;20025;-25
2022/08/11 10:01:25;;;;;;;2.67;1.50;;;27.40;44.00;;;;;;5053035;28;20021;-26
2022/08/11 10:04:16;;;;;;;1.95;1.58;;;27.50;43.90;;;;;;5052927;28;20461;-26
2022/08/11 10:07:03;;;;;;;4.15;1.70;;;27.60;43.70;;;;;;5053010;28;20021;-29
2022/08/11 10:09:44;;;;;;;1.60;1.40;;;27.60;43.40;;;;;;5053517;28;20049;-25
2022/08/11 10:12:19;;;;;;;2.67;1.90;;;27.70;43.40;;;;;;5052940;28;20472;-26
2022/08/11 10:17:37;;;;;;;4.22;1.80;;;27.80;42.60;;;;;;5053399;28;20086;-25
2022/08/11 10:20:06;;;;;;;3.30;1.50;;;27.80;42.30;;;;;;5052791;28;20051;-27
2022/08/11 10:28:08;;;;;;;1.50;1.40;;;28.10;42.60;;;;;;5053339;28;20507;-26
2022/08/11 10:36:05;;;;;;;1.90;1.60;;;28.40;41.50;;;;;;5052487;28;20043;-25
2022/08/11 10:38:31;;;;;;;2.53;1.27;;;28.40;41.30;;;;;;5052750;28;20033;-25
2022/08/11 10:43:41;;;;;;;1.65;1.50;;;28.50;41.10;;;;;;5052937;28;20063;-25
2022/08/11 10:48:55;;;;;;;1.40;1.30;;;28.50;40.80;;;;;;5052462;28;20071;-25
2022/08/11 10:59:42;;;;;;;2.88;1.40;;;28.90;40.20;;;;;;5052528;28;20090;-26
2022/08/11 11:02:13;;;;;;;1.98;1.38;;;28.90;40.10;;;;;;5052160;28;20036;-25
2022/08/11 11:05:11;;;;;;;3.22;1.70;;;29.00;40.00;;;;;;5052363;28;20017;-25
2022/08/11 11:08:51;;;;;;;1.60;1.50;;;29.10;39.80;;;;;;5051078;28;20035;-25
2022/08/11 11:10:52;;;;;;;1.42;1.30;;;29.10;39.70;;;;;;5051932;28;20120;-31
2022/08/11 11:19:10;;;;;;;1.33;1.23;;;29.20;39.60;;;;;;5049889;28;20067;-26
2022/08/11 11:21:38;;;;;;;1.60;1.50;;;29.30;39.30;;;;;;5049986;28;20044;-29
2022/08/11 11:24:40;;;;;;;3.20;1.40;;;29.40;39.80;;;;;;5040238;28;20041;-26
2022/08/11 11:27:40;;;;;;;2.85;1.33;;;29.40;38.80;;;;;;5052343;28;20507;-28
2022/08/11 11:30:09;;;;;;;3.22;1.40;;;29.50;38.70;;;;;;5052022;28;20036;-25
2022/08/11 11:32:34;;;;;;;4.90;1.38;;;29.50;38.70;;;;;;5052160;28;20032;-25
2022/08/11 11:35:14;;;;;;;1.30;1.20;;;29.60;38.40;;;;;;5052507;28;20025;-25
2022/08/11 11:37:42;;;;;;;2.20;1.33;;;29.80;37.90;;;;;;5050886;28;20025;-26
2022/08/11 11:40:11;;;;;;;1.50;1.40;;;29.90;38.00;;;;;;5052163;28;20052;-25
2022/08/11 11:42:42;;;;;;;1.80;1.17;;;29.90;37.80;;;;;;5052446;28;20092;-26
2022/08/11 11:45:10;;;;;;;3.30;1.30;;;30.10;37.80;;;;;;5054588;28;20025;-25
2022/08/11 11:47:36;;;;;;;1.15;1.05;;;30.20;37.70;;;;;;5056086;28;20029;-28
2022/08/11 11:50:04;;;;;;;1.85;1.10;;;30.30;37.50;;;;;;5055833;28;20036;-25
2022/08/11 11:52:30;;;;;;;1.95;1.30;;;30.40;37.20;;;;;;5055900;28;20031;-26
2022/08/11 11:54:57;;;;;;;2.40;1.40;;;30.50;37.20;;;;;;5055499;28;20025;-26
2022/08/11 12:02:59;;;;;;;1.40;1.30;;;30.80;36.60;;;;;;5055956;28;20054;-25
2022/08/11 12:05:26;;;;;;;1.30;1.20;;;30.90;36.60;;;;;;5055355;28;20025;-26
2022/08/11 12:10:48;;;;;;;2.65;1.30;;;30.90;36.00;;;;;;5055817;28;20114;-26
2022/08/11 12:16:02;;;;;;;1.42;1.10;;;31.10;35.70;;;;;;5055118;28;20400;-25
2022/08/11 12:18:38;;;;;;;1.63;1.10;;;31.20;35.40;;;;;;5055482;28;20024;-26
2022/08/11 12:21:04;;;;;;;2.33;1.20;;;31.30;35.30;;;;;;5053790;28;20370;-27
2022/08/11 12:29:04;;;;;;;1.52;1.30;;;31.60;34.70;;;;;;5055826;28;20065;-26
2022/08/11 12:31:30;;;;;;;3.15;1.15;;;31.70;34.60;;;;;;5055164;28;20020;-27
2022/08/11 12:34:04;;;;;;;2.03;1.30;;;31.80;34.60;;;;;;5055258;28;20021;-26
2022/08/11 12:36:35;;;;;;;1.98;1.30;;;31.80;34.20;;;;;;5055152;28;20025;-26
2022/08/11 12:39:05;;;;;;;2.67;1.35;;;31.90;34.30;;;;;;5055136;28;20465;-29
2022/08/11 12:47:12;;;;;;;1.23;1.08;;;32.20;33.80;;;;;;5055112;28;20142;-28
2022/08/11 12:52:44;;;;;;;3.03;1.33;;;32.30;33.30;;;;;;5055093;28;20543;-26
2022/08/11 12:58:14;;;;;;;1.27;1.17;;;32.40;33.30;;;;;;5054788;28;20078;-29
2022/08/11 12:58:17;;;;;;;1.48;1.38;;;32.40;33.40;;;;;;5054344;28;20120;-26
2022/08/11 13:06:13;;;;;;;2.25;1.30;;;32.60;33.30;;;;;;5055090;28;20107;-27
2022/08/11 13:08:40;;;;;;;2.38;1.10;;;32.70;33.10;;;;;;5053159;28;20473;-27
2022/08/11 13:14:03;;;;;;;1.55;1.00;;;32.80;32.90;;;;;;5052327;28;20037;-29
2022/08/11 13:17:19;;;;;;;1.48;1.10;;;32.90;32.90;;;;;;5054396;28;20463;-26
2022/08/11 13:19:20;;;;;;;1.80;1.20;;;33.00;32.80;;;;;;5053995;28;20033;-26
2022/08/11 13:21:49;;;;;;;1.23;1.10;;;33.10;32.50;;;;;;5054256;28;20021;-27
2022/08/11 13:24:17;;;;;;;1.65;1.05;;;33.20;32.40;;;;;;5054243;28;20017;-25
2022/08/11 13:26:43;;;;;;;1.65;1.30;;;33.20;32.40;;;;;;5052536;28;20025;-25
2022/08/11 13:29:09;;;;;;;1.88;1.27;;;33.30;32.30;;;;;;5053923;28;20014;-25
2022/08/11 13:31:36;;;;;;;1.77;1.23;;;33.40;32.50;;;;;;5053945;28;20055;-25
2022/08/11 13:34:02;;;;;;;1.10;1.00;;;33.60;32.40;;;;;;5054510;28;20021;-26
2022/08/11 13:36:28;;;;;;;2.40;1.30;;;33.70;32.20;;;;;;5053911;28;20111;-30
2022/08/11 13:38:57;;;;;;;2.63;1.30;;;33.80;31.70;;;;;;5053598;28;20502;-26
2022/08/11 13:41:37;;;;;;;7.82;1.50;;;33.90;31.80;;;;;;5053955;28;20365;-30
2022/08/11 13:44:04;;;;;;;1.33;1.23;;;33.90;31.60;;;;;;5053645;28;20013;-27
2022/08/11 13:46:32;;;;;;;1.63;1.38;;;33.90;31.30;;;;;;5053717;28;20025;-26
2022/08/11 13:48:59;;;;;;;2.80;1.20;;;34.00;31.00;;;;;;5053589;28;20031;-26
2022/08/11 13:51:29;;;;;;;1.42;1.25;;;33.90;30.80;;;;;;5053589;28;20017;-29
2022/08/11 13:54:00;;;;;;;1.48;1.10;;;34.00;31.00;;;;;;5053687;28;20037;-25
2022/08/11 13:56:27;;;;;;;1.50;1.40;;;34.00;30.90;;;;;;5053417;28;20127;-28
2022/08/11 13:58:54;;;;;;;2.25;1.10;;;34.20;30.90;;;;;;5053651;28;20414;-27
2022/08/11 14:01:22;;;;;;;1.27;1.08;;;34.20;31.00;;;;;;5053277;28;20021;-26
2022/08/11 14:03:49;;;;;;;1.50;1.40;;;34.40;30.90;;;;;;5053264;28;20027;-27
2022/08/11 14:06:17;;;;;;;1.20;1.10;;;34.50;31.00;;;;;;5053325;28;20025;-26
2022/08/11 14:08:45;;;;;;;1.35;1.20;;;34.60;31.00;;;;;;5052376;28;20032;-26
2022/08/11 14:13:58;;;;;;;1.67;1.30;;;34.70;31.10;;;;;;5053047;28;20511;-29
2022/08/11 14:16:38;;;;;;;1.60;1.20;;;34.80;31.30;;;;;;5052904;28;20029;-26
2022/08/11 14:19:10;;;;;;;2.65;1.30;;;34.90;30.60;;;;;;5052961;28;20036;-27
2022/08/11 14:24:25;;;;;;;1.55;1.13;;;35.00;30.90;;;;;;5053380;28;20032;-28
2022/08/11 14:26:52;;;;;;;2.70;1.27;;;35.00;30.30;;;;;;5052744;28;20083;-26
2022/08/11 14:29:20;;;;;;;3.13;1.30;;;35.00;30.20;;;;;;5053183;28;20473;-27
2022/08/11 14:31:52;;;;;;;1.65;1.10;;;35.10;30.20;;;;;;5053326;28;20485;-27
2022/08/11 14:34:21;;;;;;;1.70;1.60;;;35.20;30.20;;;;;;5052826;28;20029;-30
2022/08/11 14:36:54;;;;;;;1.50;1.40;;;35.30;30.20;;;;;;5052770;28;20108;-28
2022/08/11 14:39:25;;;;;;;2.60;1.10;;;35.40;30.20;;;;;;5052819;28;20405;-27
2022/08/11 14:47:32;;;;;;;1.33;1.23;;;35.50;30.10;;;;;;5053005;28;20033;-27
2022/08/11 14:49:59;;;;;;;1.63;1.30;;;35.50;30.00;;;;;;5052618;28;20118;-28
2022/08/11 14:52:26;;;;;;;2.83;1.40;;;35.50;30.00;;;;;;5052912;28;20369;-26
2022/08/11 14:57:40;;;;;;;1.20;1.10;;;35.50;29.90;;;;;;5052998;28;20438;-26
2022/08/11 15:00:11;;;;;;;2.05;1.08;;;35.60;30.00;;;;;;5052821;28;20021;-29
2022/08/11 15:05:24;;;;;;;1.42;1.13;;;35.60;29.80;;;;;;5053187;28;20048;-26
2022/08/11 15:07:52;;;;;;;3.80;1.40;;;35.60;29.70;;;;;;5052895;28;20457;-31
2022/08/11 15:10:18;;;;;;;2.95;1.30;;;35.60;29.60;;;;;;5051468;28;20032;-32
2022/08/11 15:12:44;;;;;;;1.17;1.08;;;35.70;29.60;;;;;;5053022;28;20025;-30
2022/08/11 15:18:05;;;;;;;1.40;1.20;;;35.60;29.50;;;;;;5053089;28;20071;-30
2022/08/11 15:26:14;;;;;;;1.50;1.10;;;35.90;29.40;;;;;;5056990;28;20032;-27
2022/08/11 15:37:26;;;;;;;1.95;1.20;;;36.00;29.10;;;;;;5056490;28;20120;-26
2022/08/11 15:46:36;;;;;;;1.40;1.20;;;36.00;29.00;;;;;;5056071;28;20048;-28
2022/08/11 15:49:11;;;;;;;1.88;1.20;;;36.00;29.00;;;;;;5048378;28;20067;-28
2022/08/11 15:51:47;;;;;;;1.65;1.00;;;36.00;29.10;;;;;;5055632;28;20047;-28
2022/08/11 15:54:19;;;;;;;1.50;1.30;;;36.10;29.10;;;;;;5055763;28;20079;-27
2022/08/11 15:56:49;;;;;;;1.98;1.10;;;36.10;29.00;;;;;;5038477;28;20048;-31
2022/08/11 16:04:49;;;;;;;2.35;1.02;;;36.10;29.00;;;;;;5055763;28;20044;-34
2022/08/11 16:07:18;;;;;;;1.38;1.20;;;36.10;28.90;;;;;;5055516;28;20029;-27
2022/08/11 16:09:49;;;;;;;1.33;1.23;;;36.20;29.00;;;;;;5055832;28;20463;-30
2022/08/11 16:12:19;;;;;;;2.75;1.20;;;36.20;28.90;;;;;;5055567;28;20021;-27
2022/08/11 16:17:39;;;;;;;1.58;1.20;;;36.40;29.00;;;;;;5055276;28;20059;-30
2022/08/11 16:20:07;;;;;;;2.45;1.10;;;36.40;29.00;;;;;;5055092;28;20481;-27
2022/08/11 16:22:40;;;;;;;1.88;1.30;;;36.40;29.00;;;;;;5055148;28;20495;-28
2022/08/11 16:25:08;;;;;;;1.30;1.20;;;36.40;28.90;;;;;;5055370;28;20021;-28
2022/08/11 16:27:43;;;;;;;2.05;1.17;;;36.40;29.00;;;;;;5054055;28;20049;-32
2022/08/11 16:30:10;;;;;;;1.83;1.15;;;36.30;28.90;;;;;;5055351;28;20021;-31
2022/08/11 16:32:39;;;;;;;1.27;1.17;;;36.30;29.00;;;;;;5054290;28;20488;-32
2022/08/11 16:40:41;;;;;;;2.75;1.27;;;36.20;29.00;;;;;;5054909;28;20107;-31
2022/08/11 16:48:46;;;;;;;2.22;1.30;;;36.00;29.10;;;;;;5055245;28;20099;-26
2022/08/11 16:51:12;;;;;;;1.27;1.17;;;36.00;29.20;;;;;;5055114;28;20431;-26
2022/08/11 16:53:43;;;;;;;1.58;1.20;;;36.00;29.20;;;;;;5055234;28;20025;-30
2022/08/11 16:56:15;;;;;;;3.03;1.30;;;36.10;29.30;;;;;;5055186;28;20456;-26
2022/08/11 17:01:26;;;;;;;1.20;1.13;;;36.10;29.30;;;;;;5055429;28;20031;-26
2022/08/11 17:13:07;;;;;;;2.22;1.05;;;36.00;29.40;;;;;;5054825;28;20503;-29
2022/08/11 17:18:40;;;;;;;1.23;1.10;;;35.90;29.40;;;;;;5053520;28;20032;-28
2022/08/11 17:21:11;;;;;;;3.15;1.50;;;35.90;29.40;;;;;;5054153;28;20033;-34
2022/08/11 17:23:48;;;;;;;1.40;1.13;;;35.90;29.40;;;;;;5054224;28;20024;-26
2022/08/11 17:26:19;;;;;;;2.40;1.10;;;35.90;29.40;;;;;;5054455;28;20392;-25
2022/08/11 17:28:50;;;;;;;1.35;1.00;;;35.90;29.30;;;;;;5054115;28;20488;-26
2022/08/11 17:36:55;;;;;;;3.00;1.10;;;35.80;29.40;;;;;;5054441;28;20083;-31
2022/08/11 17:39:24;;;;;;;2.47;1.00;;;35.80;29.30;;;;;;5054122;28;20128;-32
2022/08/11 17:50:19;;;;;;;1.17;1.08;;;35.50;29.30;;;;;;5051774;28;20132;-27
2022/08/11 18:01:05;;;;;;;1.42;0.90;;;35.00;29.30;;;;;;5054096;28;20029;-27
2022/08/11 18:03:38;;;;;;;2.00;1.08;;;34.90;29.40;;;;;;5053538;28;20029;-27
2022/08/11 18:06:07;;;;;;;2.45;1.20;;;34.90;29.40;;;;;;5053401;28;20025;-30
